sensor_id;sensor_type;location;lat;lon;timestamp;P1;durP1;ratioP1;P2;durP2;ratioP2
179;SDS011;78;48.788;9.010;2023-09-19T00:00:30;16.63;;;2.23;;
179;SDS011;78;48.788;9.010;2023-09-19T00:02:57;14.10;;;2.00;;
179;SDS011;78;48.788;9.010;2023-09-19T00:05:28;15.23;;;2.37;;
179;SDS011;78;48.788;9.010;2023-09-19T00:07:55;18.27;;;2.30;;
179;SDS011;78;48.788;9.010;2023-09-19T00:13:27;14.73;;;2.20;;
179;SDS011;78;48.788;9.010;2023-09-19T00:15:54;15.43;;;2.53;;
179;SDS011;78;48.788;9.010;2023-09-19T00:18:20;16.43;;;2.40;;
179;SDS011;78;48.788;9.010;2023-09-19T00:20:47;14.23;;;2.30;;
179;SDS011;78;48.788;9.010;2023-09-19T00:23:14;14.20;;;2.30;;
179;SDS011;78;48.788;9.010;2023-09-19T00:25:40;14.70;;;2.33;;
179;SDS011;78;48.788;9.010;2023-09-19T00:28:07;16.70;;;2.37;;
179;SDS011;78;48.788;9.010;2023-09-19T00:30:34;14.47;;;2.33;;
179;SDS011;78;48.788;9.010;2023-09-19T00:33:01;15.07;;;2.33;;
179;SDS011;78;48.788;9.010;2023-09-19T00:35:30;15.07;;;2.20;;
179;SDS011;78;48.788;9.010;2023-09-19T00:37:57;14.70;;;2.10;;
179;SDS011;78;48.788;9.010;2023-09-19T00:40:23;14.47;;;2.40;;
179;SDS011;78;48.788;9.010;2023-09-19T00:42:51;13.90;;;2.20;;
179;SDS011;78;48.788;9.010;2023-09-19T00:45:18;15.60;;;2.33;;
179;SDS011;78;48.788;9.010;2023-09-19T00:47:47;18.70;;;2.47;;
179;SDS011;78;48.788;9.010;2023-09-19T00:50:17;15.90;;;2.20;;
179;SDS011;78;48.788;9.010;2023-09-19T00:52:44;15.30;;;2.20;;
179;SDS011;78;48.788;9.010;2023-09-19T00:55:12;14.30;;;2.20;;
179;SDS011;78;48.788;9.010;2023-09-19T00:57:41;16.00;;;2.20;;
179;SDS011;78;48.788;9.010;2023-09-19T01:00:09;14.20;;;2.10;;
179;SDS011;78;48.788;9.010;2023-09-19T01:02:40;14.13;;;2.20;;
179;SDS011;78;48.788;9.010;2023-09-19T01:05:08;17.47;;;2.20;;
179;SDS011;78;48.788;9.010;2023-09-19T01:07:35;14.10;;;2.10;;
179;SDS011;78;48.788;9.010;2023-09-19T01:10:05;15.00;;;2.40;;
179;SDS011;78;48.788;9.010;2023-09-19T01:15:11;20.23;;;2.40;;
179;SDS011;78;48.788;9.010;2023-09-19T01:18:07;18.70;;;2.30;;
179;SDS011;78;48.788;9.010;2023-09-19T01:20:31;16.10;;;2.20;;
179;SDS011;78;48.788;9.010;2023-09-19T01:23:39;16.00;;;2.07;;
179;SDS011;78;48.788;9.010;2023-09-19T01:26:04;14.30;;;2.30;;
179;SDS011;78;48.788;9.010;2023-09-19T01:31:09;14.60;;;2.30;;
179;SDS011;78;48.788;9.010;2023-09-19T01:36:25;14.37;;;2.20;;
179;SDS011;78;48.788;9.010;2023-09-19T01:38:51;15.77;;;2.30;;
179;SDS011;78;48.788;9.010;2023-09-19T01:41:25;15.33;;;2.37;;
179;SDS011;78;48.788;9.010;2023-09-19T01:43:52;15.80;;;2.30;;
179;SDS011;78;48.788;9.010;2023-09-19T01:46:24;15.00;;;2.10;;
179;SDS011;78;48.788;9.010;2023-09-19T01:48:59;17.23;;;2.53;;
179;SDS011;78;48.788;9.010;2023-09-19T01:54:00;15.77;;;2.33;;
179;SDS011;78;48.788;9.010;2023-09-19T01:56:50;15.10;;;2.10;;
179;SDS011;78;48.788;9.010;2023-09-19T01:59:16;13.93;;;2.03;;
179;SDS011;78;48.788;9.010;2023-09-19T02:01:44;14.00;;;2.17;;
179;SDS011;78;48.788;9.010;2023-09-19T02:04:11;14.10;;;1.93;;
179;SDS011;78;48.788;9.010;2023-09-19T02:06:40;14.97;;;2.10;;
179;SDS011;78;48.788;9.010;2023-09-19T02:09:07;14.80;;;2.27;;
179;SDS011;78;48.788;9.010;2023-09-19T02:11:34;15.47;;;2.10;;
179;SDS011;78;48.788;9.010;2023-09-19T02:14:02;16.23;;;2.40;;
179;SDS011;78;48.788;9.010;2023-09-19T02:16:29;14.10;;;2.23;;
179;SDS011;78;48.788;9.010;2023-09-19T02:18:55;14.27;;;2.13;;
179;SDS011;78;48.788;9.010;2023-09-19T02:21:22;17.10;;;2.13;;
179;SDS011;78;48.788;9.010;2023-09-19T02:23:48;15.90;;;2.27;;
179;SDS011;78;48.788;9.010;2023-09-19T02:26:16;14.40;;;2.07;;
179;SDS011;78;48.788;9.010;2023-09-19T02:28:45;14.47;;;2.00;;
179;SDS011;78;48.788;9.010;2023-09-19T02:31:12;15.30;;;2.20;;
179;SDS011;78;48.788;9.010;2023-09-19T02:33:38;15.80;;;2.23;;
179;SDS011;78;48.788;9.010;2023-09-19T02:36:05;14.20;;;2.10;;
179;SDS011;78;48.788;9.010;2023-09-19T02:38:31;13.97;;;2.27;;
179;SDS011;78;48.788;9.010;2023-09-19T02:40:57;14.07;;;2.20;;
179;SDS011;78;48.788;9.010;2023-09-19T02:43:24;15.23;;;2.10;;
179;SDS011;78;48.788;9.010;2023-09-19T02:45:51;14.60;;;2.00;;
179;SDS011;78;48.788;9.010;2023-09-19T02:48:18;18.43;;;2.30;;
179;SDS011;78;48.788;9.010;2023-09-19T02:50:45;14.50;;;2.10;;
179;SDS011;78;48.788;9.010;2023-09-19T02:53:12;18.43;;;2.00;;
179;SDS011;78;48.788;9.010;2023-09-19T02:55:40;14.40;;;2.00;;
179;SDS011;78;48.788;9.010;2023-09-19T02:58:06;13.80;;;2.00;;
179;SDS011;78;48.788;9.010;2023-09-19T03:00:33;13.97;;;1.93;;
179;SDS011;78;48.788;9.010;2023-09-19T03:03:01;16.33;;;2.20;;
179;SDS011;78;48.788;9.010;2023-09-19T03:05:27;15.50;;;2.10;;
179;SDS011;78;48.788;9.010;2023-09-19T03:07:57;14.33;;;2.10;;
179;SDS011;78;48.788;9.010;2023-09-19T03:10:26;16.03;;;2.20;;
179;SDS011;78;48.788;9.010;2023-09-19T03:12:53;14.90;;;2.30;;
179;SDS011;78;48.788;9.010;2023-09-19T03:15:19;14.47;;;1.90;;
179;SDS011;78;48.788;9.010;2023-09-19T03:17:47;13.77;;;2.00;;
179;SDS011;78;48.788;9.010;2023-09-19T03:20:14;13.60;;;2.10;;
179;SDS011;78;48.788;9.010;2023-09-19T03:22:45;15.57;;;2.10;;
179;SDS011;78;48.788;9.010;2023-09-19T03:25:11;15.60;;;2.20;;
179;SDS011;78;48.788;9.010;2023-09-19T03:27:39;14.47;;;2.17;;
179;SDS011;78;48.788;9.010;2023-09-19T03:30:06;14.07;;;2.00;;
179;SDS011;78;48.788;9.010;2023-09-19T03:32:45;15.03;;;2.00;;
179;SDS011;78;48.788;9.010;2023-09-19T03:35:12;14.33;;;2.07;;
179;SDS011;78;48.788;9.010;2023-09-19T03:37:39;14.80;;;2.30;;
179;SDS011;78;48.788;9.010;2023-09-19T03:40:06;15.33;;;2.27;;
179;SDS011;78;48.788;9.010;2023-09-19T03:42:33;13.50;;;1.97;;
179;SDS011;78;48.788;9.010;2023-09-19T03:45:01;14.33;;;2.20;;
179;SDS011;78;48.788;9.010;2023-09-19T03:47:28;14.83;;;2.33;;
179;SDS011;78;48.788;9.010;2023-09-19T03:49:54;14.40;;;2.33;;
179;SDS011;78;48.788;9.010;2023-09-19T03:52:21;16.73;;;2.20;;
179;SDS011;78;48.788;9.010;2023-09-19T03:54:47;16.07;;;2.67;;
179;SDS011;78;48.788;9.010;2023-09-19T03:57:14;18.17;;;2.40;;
179;SDS011;78;48.788;9.010;2023-09-19T03:59:46;14.67;;;2.33;;
179;SDS011;78;48.788;9.010;2023-09-19T04:02:13;13.93;;;2.10;;
179;SDS011;78;48.788;9.010;2023-09-19T04:04:47;16.43;;;2.50;;
179;SDS011;78;48.788;9.010;2023-09-19T04:07:13;15.77;;;2.70;;
179;SDS011;78;48.788;9.010;2023-09-19T04:09:40;16.00;;;2.60;;
179;SDS011;78;48.788;9.010;2023-09-19T04:12:07;15.50;;;2.50;;
179;SDS011;78;48.788;9.010;2023-09-19T04:14:36;14.37;;;2.20;;
179;SDS011;78;48.788;9.010;2023-09-19T04:17:03;16.40;;;2.20;;
179;SDS011;78;48.788;9.010;2023-09-19T04:19:30;14.13;;;2.20;;
179;SDS011;78;48.788;9.010;2023-09-19T04:21:57;14.40;;;2.20;;
179;SDS011;78;48.788;9.010;2023-09-19T04:24:23;14.40;;;2.40;;
179;SDS011;78;48.788;9.010;2023-09-19T04:26:49;17.20;;;2.47;;
179;SDS011;78;48.788;9.010;2023-09-19T04:29:16;16.20;;;2.40;;
179;SDS011;78;48.788;9.010;2023-09-19T04:31:44;16.03;;;2.50;;
179;SDS011;78;48.788;9.010;2023-09-19T04:34:11;15.23;;;2.80;;
179;SDS011;78;48.788;9.010;2023-09-19T04:36:42;15.20;;;2.37;;
179;SDS011;78;48.788;9.010;2023-09-19T04:39:09;18.73;;;2.67;;
179;SDS011;78;48.788;9.010;2023-09-19T04:41:38;17.30;;;2.70;;
179;SDS011;78;48.788;9.010;2023-09-19T04:44:06;16.53;;;3.10;;
179;SDS011;78;48.788;9.010;2023-09-19T04:46:33;15.93;;;2.73;;
179;SDS011;78;48.788;9.010;2023-09-19T04:49:00;17.00;;;3.00;;
179;SDS011;78;48.788;9.010;2023-09-19T04:51:26;15.57;;;2.73;;
179;SDS011;78;48.788;9.010;2023-09-19T04:53:56;14.60;;;2.53;;
179;SDS011;78;48.788;9.010;2023-09-19T04:56:22;16.77;;;2.50;;
179;SDS011;78;48.788;9.010;2023-09-19T04:58:49;16.70;;;3.03;;
179;SDS011;78;48.788;9.010;2023-09-19T05:01:15;17.37;;;2.90;;
179;SDS011;78;48.788;9.010;2023-09-19T05:03:42;16.33;;;3.00;;
179;SDS011;78;48.788;9.010;2023-09-19T05:06:10;20.50;;;2.90;;
179;SDS011;78;48.788;9.010;2023-09-19T05:08:36;17.30;;;3.07;;
179;SDS011;78;48.788;9.010;2023-09-19T05:11:03;14.83;;;2.60;;
179;SDS011;78;48.788;9.010;2023-09-19T05:13:30;16.47;;;2.87;;
179;SDS011;78;48.788;9.010;2023-09-19T05:15:59;15.53;;;3.10;;
179;SDS011;78;48.788;9.010;2023-09-19T05:18:27;16.80;;;2.97;;
179;SDS011;78;48.788;9.010;2023-09-19T05:20:53;15.23;;;3.10;;
179;SDS011;78;48.788;9.010;2023-09-19T05:23:20;17.80;;;3.10;;
179;SDS011;78;48.788;9.010;2023-09-19T05:25:46;17.37;;;3.30;;
179;SDS011;78;48.788;9.010;2023-09-19T05:28:13;20.63;;;3.70;;
179;SDS011;78;48.788;9.010;2023-09-19T05:30:40;20.60;;;3.63;;
179;SDS011;78;48.788;9.010;2023-09-19T05:33:08;16.63;;;2.90;;
179;SDS011;78;48.788;9.010;2023-09-19T05:35:35;18.60;;;2.87;;
179;SDS011;78;48.788;9.010;2023-09-19T05:38:07;17.37;;;3.10;;
179;SDS011;78;48.788;9.010;2023-09-19T05:40:38;17.20;;;3.30;;
179;SDS011;78;48.788;9.010;2023-09-19T05:43:08;16.33;;;3.10;;
179;SDS011;78;48.788;9.010;2023-09-19T05:45:34;16.30;;;2.73;;
179;SDS011;78;48.788;9.010;2023-09-19T05:48:11;16.07;;;2.80;;
179;SDS011;78;48.788;9.010;2023-09-19T05:50:41;16.07;;;2.80;;
179;SDS011;78;48.788;9.010;2023-09-19T05:53:07;17.00;;;2.90;;
179;SDS011;78;48.788;9.010;2023-09-19T05:55:37;17.30;;;3.00;;
179;SDS011;78;48.788;9.010;2023-09-19T05:58:04;16.80;;;3.03;;
179;SDS011;78;48.788;9.010;2023-09-19T06:00:30;18.30;;;3.60;;
179;SDS011;78;48.788;9.010;2023-09-19T06:02:57;16.47;;;3.20;;
179;SDS011;78;48.788;9.010;2023-09-19T06:05:24;18.20;;;3.13;;
179;SDS011;78;48.788;9.010;2023-09-19T06:07:52;23.87;;;3.40;;
179;SDS011;78;48.788;9.010;2023-09-19T06:10:19;17.03;;;3.33;;
179;SDS011;78;48.788;9.010;2023-09-19T06:12:48;19.67;;;3.60;;
179;SDS011;78;48.788;9.010;2023-09-19T06:15:15;15.10;;;3.00;;
179;SDS011;78;48.788;9.010;2023-09-19T06:17:50;19.43;;;3.50;;
179;SDS011;78;48.788;9.010;2023-09-19T06:20:16;17.30;;;3.70;;
179;SDS011;78;48.788;9.010;2023-09-19T06:22:43;19.10;;;3.60;;
179;SDS011;78;48.788;9.010;2023-09-19T06:25:10;22.03;;;3.57;;
179;SDS011;78;48.788;9.010;2023-09-19T06:27:38;20.60;;;3.60;;
179;SDS011;78;48.788;9.010;2023-09-19T06:30:07;18.90;;;4.00;;
179;SDS011;78;48.788;9.010;2023-09-19T06:32:34;18.43;;;3.37;;
179;SDS011;78;48.788;9.010;2023-09-19T06:35:00;20.53;;;4.00;;
179;SDS011;78;48.788;9.010;2023-09-19T06:37:30;19.97;;;4.00;;
179;SDS011;78;48.788;9.010;2023-09-19T06:39:58;18.70;;;3.87;;
179;SDS011;78;48.788;9.010;2023-09-19T06:42:24;19.43;;;4.10;;
179;SDS011;78;48.788;9.010;2023-09-19T06:44:51;23.27;;;4.40;;
179;SDS011;78;48.788;9.010;2023-09-19T06:47:18;17.90;;;3.97;;
179;SDS011;78;48.788;9.010;2023-09-19T06:49:44;19.10;;;4.27;;
179;SDS011;78;48.788;9.010;2023-09-19T06:52:10;22.43;;;4.33;;
179;SDS011;78;48.788;9.010;2023-09-19T06:54:37;19.00;;;3.97;;
179;SDS011;78;48.788;9.010;2023-09-19T06:57:05;22.47;;;3.90;;
179;SDS011;78;48.788;9.010;2023-09-19T06:59:34;16.90;;;3.40;;
179;SDS011;78;48.788;9.010;2023-09-19T07:02:02;19.10;;;4.10;;
179;SDS011;78;48.788;9.010;2023-09-19T07:04:31;18.87;;;3.90;;
179;SDS011;78;48.788;9.010;2023-09-19T07:06:59;18.67;;;3.30;;
179;SDS011;78;48.788;9.010;2023-09-19T07:09:25;17.40;;;3.70;;
179;SDS011;78;48.788;9.010;2023-09-19T07:11:53;17.57;;;3.67;;
179;SDS011;78;48.788;9.010;2023-09-19T07:14:20;17.83;;;3.73;;
179;SDS011;78;48.788;9.010;2023-09-19T07:16:46;18.20;;;3.93;;
179;SDS011;78;48.788;9.010;2023-09-19T07:19:15;19.73;;;4.00;;
179;SDS011;78;48.788;9.010;2023-09-19T07:21:41;17.10;;;3.60;;
179;SDS011;78;48.788;9.010;2023-09-19T07:24:07;17.97;;;3.77;;
179;SDS011;78;48.788;9.010;2023-09-19T07:26:34;18.93;;;4.00;;
179;SDS011;78;48.788;9.010;2023-09-19T07:29:00;17.80;;;3.80;;
179;SDS011;78;48.788;9.010;2023-09-19T07:31:29;16.50;;;3.70;;
179;SDS011;78;48.788;9.010;2023-09-19T07:33:56;18.97;;;3.50;;
179;SDS011;78;48.788;9.010;2023-09-19T07:36:22;16.37;;;3.60;;
179;SDS011;78;48.788;9.010;2023-09-19T07:38:49;20.83;;;3.67;;
179;SDS011;78;48.788;9.010;2023-09-19T07:41:15;16.70;;;3.80;;
179;SDS011;78;48.788;9.010;2023-09-19T07:43:42;17.33;;;3.50;;
179;SDS011;78;48.788;9.010;2023-09-19T07:46:09;18.33;;;3.60;;
179;SDS011;78;48.788;9.010;2023-09-19T07:48:36;15.90;;;3.30;;
179;SDS011;78;48.788;9.010;2023-09-19T07:51:04;17.13;;;3.73;;
179;SDS011;78;48.788;9.010;2023-09-19T07:53:31;16.87;;;3.77;;
179;SDS011;78;48.788;9.010;2023-09-19T07:56:05;17.57;;;3.40;;
179;SDS011;78;48.788;9.010;2023-09-19T07:58:31;16.10;;;3.30;;
179;SDS011;78;48.788;9.010;2023-09-19T08:01:08;18.17;;;4.03;;
179;SDS011;78;48.788;9.010;2023-09-19T08:03:35;19.63;;;3.40;;
179;SDS011;78;48.788;9.010;2023-09-19T08:06:07;16.23;;;3.20;;
179;SDS011;78;48.788;9.010;2023-09-19T08:08:34;16.37;;;3.10;;
179;SDS011;78;48.788;9.010;2023-09-19T08:11:03;18.50;;;3.10;;
179;SDS011;78;48.788;9.010;2023-09-19T08:13:37;15.77;;;2.83;;
179;SDS011;78;48.788;9.010;2023-09-19T08:16:08;17.67;;;3.10;;
179;SDS011;78;48.788;9.010;2023-09-19T08:18:35;14.57;;;2.70;;
179;SDS011;78;48.788;9.010;2023-09-19T08:21:02;14.97;;;2.80;;
179;SDS011;78;48.788;9.010;2023-09-19T08:23:29;16.27;;;2.80;;
179;SDS011;78;48.788;9.010;2023-09-19T08:25:57;16.37;;;3.23;;
179;SDS011;78;48.788;9.010;2023-09-19T08:28:27;15.40;;;2.80;;
179;SDS011;78;48.788;9.010;2023-09-19T08:30:55;15.00;;;2.60;;
179;SDS011;78;48.788;9.010;2023-09-19T08:33:23;15.10;;;2.70;;
179;SDS011;78;48.788;9.010;2023-09-19T08:35:49;21.03;;;2.70;;
179;SDS011;78;48.788;9.010;2023-09-19T08:38:16;16.40;;;2.60;;
179;SDS011;78;48.788;9.010;2023-09-19T08:40:42;17.70;;;2.50;;
179;SDS011;78;48.788;9.010;2023-09-19T08:43:09;15.77;;;2.90;;
179;SDS011;78;48.788;9.010;2023-09-19T08:45:35;15.50;;;2.60;;
179;SDS011;78;48.788;9.010;2023-09-19T08:50:52;14.37;;;2.37;;
179;SDS011;78;48.788;9.010;2023-09-19T08:53:21;14.73;;;2.30;;
179;SDS011;78;48.788;9.010;2023-09-19T08:55:49;16.57;;;2.67;;
179;SDS011;78;48.788;9.010;2023-09-19T08:58:19;14.67;;;2.70;;
179;SDS011;78;48.788;9.010;2023-09-19T09:00:47;18.03;;;2.70;;
179;SDS011;78;48.788;9.010;2023-09-19T09:03:14;16.00;;;2.80;;
179;SDS011;78;48.788;9.010;2023-09-19T09:05:44;15.30;;;2.70;;
179;SDS011;78;48.788;9.010;2023-09-19T09:08:12;15.80;;;2.57;;
179;SDS011;78;48.788;9.010;2023-09-19T09:10:39;17.37;;;2.70;;
179;SDS011;78;48.788;9.010;2023-09-19T09:13:06;16.23;;;2.70;;
179;SDS011;78;48.788;9.010;2023-09-19T09:15:35;17.40;;;2.90;;
179;SDS011;78;48.788;9.010;2023-09-19T09:18:02;15.90;;;2.67;;
179;SDS011;78;48.788;9.010;2023-09-19T09:20:30;16.93;;;2.73;;
179;SDS011;78;48.788;9.010;2023-09-19T09:22:56;16.43;;;2.83;;
179;SDS011;78;48.788;9.010;2023-09-19T09:25:46;18.47;;;3.10;;
179;SDS011;78;48.788;9.010;2023-09-19T09:28:11;16.63;;;2.93;;
179;SDS011;78;48.788;9.010;2023-09-19T09:30:45;17.13;;;2.60;;
179;SDS011;78;48.788;9.010;2023-09-19T09:33:11;17.43;;;2.50;;
179;SDS011;78;48.788;9.010;2023-09-19T09:35:48;18.10;;;2.73;;
179;SDS011;78;48.788;9.010;2023-09-19T09:38:20;17.17;;;2.93;;
179;SDS011;78;48.788;9.010;2023-09-19T09:40:51;15.90;;;3.00;;
179;SDS011;78;48.788;9.010;2023-09-19T09:43:35;16.40;;;2.63;;
179;SDS011;78;48.788;9.010;2023-09-19T09:46:09;15.80;;;2.73;;
179;SDS011;78;48.788;9.010;2023-09-19T09:48:56;15.03;;;2.60;;
179;SDS011;78;48.788;9.010;2023-09-19T09:51:43;15.00;;;2.53;;
179;SDS011;78;48.788;9.010;2023-09-19T09:54:15;15.60;;;2.60;;
179;SDS011;78;48.788;9.010;2023-09-19T09:56:57;15.73;;;2.73;;
179;SDS011;78;48.788;9.010;2023-09-19T10:02:13;15.90;;;2.80;;
179;SDS011;78;48.788;9.010;2023-09-19T10:04:39;15.10;;;2.37;;
179;SDS011;78;48.788;9.010;2023-09-19T10:07:24;14.40;;;2.30;;
179;SDS011;78;48.788;9.010;2023-09-19T10:09:51;15.17;;;2.87;;
179;SDS011;78;48.788;9.010;2023-09-19T10:12:17;16.43;;;2.60;;
179;SDS011;78;48.788;9.010;2023-09-19T10:14:45;15.60;;;2.63;;
179;SDS011;78;48.788;9.010;2023-09-19T10:17:12;14.70;;;2.50;;
179;SDS011;78;48.788;9.010;2023-09-19T10:19:56;14.90;;;2.40;;
179;SDS011;78;48.788;9.010;2023-09-19T10:22:34;15.33;;;2.43;;
179;SDS011;78;48.788;9.010;2023-09-19T10:25:02;15.80;;;2.53;;
179;SDS011;78;48.788;9.010;2023-09-19T10:27:32;16.13;;;2.57;;
179;SDS011;78;48.788;9.010;2023-09-19T10:30:04;16.43;;;2.30;;
179;SDS011;78;48.788;9.010;2023-09-19T10:32:32;14.97;;;2.60;;
179;SDS011;78;48.788;9.010;2023-09-19T10:35:01;14.90;;;2.30;;
179;SDS011;78;48.788;9.010;2023-09-19T10:37:30;13.93;;;2.27;;
179;SDS011;78;48.788;9.010;2023-09-19T10:39:57;18.50;;;2.30;;
179;SDS011;78;48.788;9.010;2023-09-19T10:42:25;15.00;;;2.20;;
179;SDS011;78;48.788;9.010;2023-09-19T10:44:54;16.47;;;2.70;;
179;SDS011;78;48.788;9.010;2023-09-19T10:47:20;14.67;;;2.40;;
179;SDS011;78;48.788;9.010;2023-09-19T10:49:49;15.23;;;2.40;;
179;SDS011;78;48.788;9.010;2023-09-19T10:52:17;15.40;;;2.50;;
179;SDS011;78;48.788;9.010;2023-09-19T10:54:51;15.87;;;2.60;;
179;SDS011;78;48.788;9.010;2023-09-19T10:57:22;15.70;;;2.80;;
179;SDS011;78;48.788;9.010;2023-09-19T11:00:04;14.33;;;2.30;;
179;SDS011;78;48.788;9.010;2023-09-19T11:06:14;16.20;;;2.23;;
179;SDS011;78;48.788;9.010;2023-09-19T11:22:22;13.87;;;2.27;;
179;SDS011;78;48.788;9.010;2023-09-19T11:24:51;14.40;;;2.17;;
179;SDS011;78;48.788;9.010;2023-09-19T11:27:21;15.13;;;1.90;;
179;SDS011;78;48.788;9.010;2023-09-19T11:29:52;15.97;;;2.37;;
179;SDS011;78;48.788;9.010;2023-09-19T11:33:24;14.90;;;2.40;;
179;SDS011;78;48.788;9.010;2023-09-19T11:35:37;15.73;;;2.33;;
179;SDS011;78;48.788;9.010;2023-09-19T11:38:12;16.63;;;2.37;;
179;SDS011;78;48.788;9.010;2023-09-19T11:40:44;16.90;;;2.10;;
179;SDS011;78;48.788;9.010;2023-09-19T11:43:29;19.20;;;2.60;;
179;SDS011;78;48.788;9.010;2023-09-19T11:48:23;14.83;;;2.07;;
179;SDS011;78;48.788;9.010;2023-09-19T11:50:52;14.40;;;2.07;;
179;SDS011;78;48.788;9.010;2023-09-19T11:53:19;15.40;;;2.10;;
179;SDS011;78;48.788;9.010;2023-09-19T11:55:46;15.70;;;2.23;;
179;SDS011;78;48.788;9.010;2023-09-19T11:58:14;14.90;;;2.27;;
179;SDS011;78;48.788;9.010;2023-09-19T12:00:42;15.20;;;2.10;;
179;SDS011;78;48.788;9.010;2023-09-19T12:03:10;14.50;;;2.20;;
179;SDS011;78;48.788;9.010;2023-09-19T12:05:37;14.10;;;2.27;;
179;SDS011;78;48.788;9.010;2023-09-19T12:08:04;14.30;;;2.40;;
179;SDS011;78;48.788;9.010;2023-09-19T12:10:54;15.67;;;2.50;;
179;SDS011;78;48.788;9.010;2023-09-19T12:13:21;14.70;;;2.30;;
179;SDS011;78;48.788;9.010;2023-09-19T12:15:47;15.00;;;2.20;;
179;SDS011;78;48.788;9.010;2023-09-19T12:18:29;15.70;;;2.53;;
179;SDS011;78;48.788;9.010;2023-09-19T12:20:56;15.00;;;2.37;;
179;SDS011;78;48.788;9.010;2023-09-19T12:23:23;15.30;;;2.40;;
179;SDS011;78;48.788;9.010;2023-09-19T12:25:51;18.63;;;2.33;;
179;SDS011;78;48.788;9.010;2023-09-19T12:28:19;13.70;;;2.10;;
179;SDS011;78;48.788;9.010;2023-09-19T12:30:47;13.97;;;2.17;;
179;SDS011;78;48.788;9.010;2023-09-19T12:33:17;14.57;;;2.30;;
179;SDS011;78;48.788;9.010;2023-09-19T12:35:47;14.00;;;2.10;;
179;SDS011;78;48.788;9.010;2023-09-19T12:38:23;15.27;;;2.43;;
179;SDS011;78;48.788;9.010;2023-09-19T12:40:50;14.43;;;2.37;;
179;SDS011;78;48.788;9.010;2023-09-19T12:43:17;17.63;;;2.63;;
179;SDS011;78;48.788;9.010;2023-09-19T12:45:43;14.60;;;2.40;;
179;SDS011;78;48.788;9.010;2023-09-19T12:48:26;15.60;;;2.20;;
179;SDS011;78;48.788;9.010;2023-09-19T12:51:06;15.37;;;2.47;;
179;SDS011;78;48.788;9.010;2023-09-19T12:53:33;18.73;;;2.53;;
179;SDS011;78;48.788;9.010;2023-09-19T12:56:03;15.90;;;2.60;;
179;SDS011;78;48.788;9.010;2023-09-19T12:58:33;16.57;;;2.50;;
179;SDS011;78;48.788;9.010;2023-09-19T13:01:00;15.37;;;2.30;;
179;SDS011;78;48.788;9.010;2023-09-19T13:03:30;16.23;;;2.37;;
179;SDS011;78;48.788;9.010;2023-09-19T13:06:03;16.90;;;2.47;;
179;SDS011;78;48.788;9.010;2023-09-19T13:08:30;16.47;;;2.67;;
179;SDS011;78;48.788;9.010;2023-09-19T13:11:02;15.10;;;2.27;;
179;SDS011;78;48.788;9.010;2023-09-19T13:13:28;14.20;;;2.47;;
179;SDS011;78;48.788;9.010;2023-09-19T13:15:55;17.43;;;2.60;;
179;SDS011;78;48.788;9.010;2023-09-19T13:18:27;14.10;;;2.30;;
179;SDS011;78;48.788;9.010;2023-09-19T13:21:06;14.77;;;2.30;;
179;SDS011;78;48.788;9.010;2023-09-19T13:23:41;15.50;;;2.50;;
179;SDS011;78;48.788;9.010;2023-09-19T13:26:09;16.70;;;2.50;;
179;SDS011;78;48.788;9.010;2023-09-19T13:28:37;15.63;;;2.50;;
179;SDS011;78;48.788;9.010;2023-09-19T13:31:03;19.33;;;2.30;;
179;SDS011;78;48.788;9.010;2023-09-19T13:33:30;15.67;;;2.40;;
179;SDS011;78;48.788;9.010;2023-09-19T13:35:56;16.00;;;2.70;;
179;SDS011;78;48.788;9.010;2023-09-19T13:38:23;23.30;;;2.30;;
179;SDS011;78;48.788;9.010;2023-09-19T13:40:49;14.77;;;2.40;;
179;SDS011;78;48.788;9.010;2023-09-19T13:43:17;14.80;;;2.43;;
179;SDS011;78;48.788;9.010;2023-09-19T13:45:44;14.80;;;2.30;;
179;SDS011;78;48.788;9.010;2023-09-19T13:48:10;16.07;;;2.50;;
179;SDS011;78;48.788;9.010;2023-09-19T13:50:37;15.47;;;2.60;;
179;SDS011;78;48.788;9.010;2023-09-19T13:53:07;15.90;;;2.10;;
179;SDS011;78;48.788;9.010;2023-09-19T13:55:34;15.23;;;2.40;;
179;SDS011;78;48.788;9.010;2023-09-19T13:58:03;14.90;;;2.57;;
179;SDS011;78;48.788;9.010;2023-09-19T14:00:33;15.80;;;2.60;;
179;SDS011;78;48.788;9.010;2023-09-19T14:03:03;14.70;;;2.30;;
179;SDS011;78;48.788;9.010;2023-09-19T14:05:30;15.23;;;2.20;;
179;SDS011;78;48.788;9.010;2023-09-19T14:07:56;15.23;;;2.60;;
179;SDS011;78;48.788;9.010;2023-09-19T14:10:24;16.70;;;2.60;;
179;SDS011;78;48.788;9.010;2023-09-19T14:12:55;14.50;;;2.50;;
179;SDS011;78;48.788;9.010;2023-09-19T14:15:23;15.23;;;2.30;;
179;SDS011;78;48.788;9.010;2023-09-19T14:17:55;15.30;;;2.63;;
179;SDS011;78;48.788;9.010;2023-09-19T14:20:22;16.03;;;2.80;;
179;SDS011;78;48.788;9.010;2023-09-19T14:22:48;13.70;;;2.10;;
179;SDS011;78;48.788;9.010;2023-09-19T14:25:14;14.20;;;2.30;;
179;SDS011;78;48.788;9.010;2023-09-19T14:27:41;14.97;;;2.50;;
179;SDS011;78;48.788;9.010;2023-09-19T14:30:07;16.00;;;2.50;;
179;SDS011;78;48.788;9.010;2023-09-19T14:32:34;14.00;;;2.20;;
179;SDS011;78;48.788;9.010;2023-09-19T14:35:01;14.67;;;2.53;;
179;SDS011;78;48.788;9.010;2023-09-19T14:37:27;15.23;;;2.30;;
179;SDS011;78;48.788;9.010;2023-09-19T14:39:53;14.90;;;2.10;;
179;SDS011;78;48.788;9.010;2023-09-19T14:42:20;15.43;;;2.30;;
179;SDS011;78;48.788;9.010;2023-09-19T14:44:46;14.80;;;2.30;;
179;SDS011;78;48.788;9.010;2023-09-19T14:47:13;15.87;;;2.40;;
179;SDS011;78;48.788;9.010;2023-09-19T14:49:41;14.70;;;2.13;;
179;SDS011;78;48.788;9.010;2023-09-19T14:52:09;14.40;;;2.37;;
179;SDS011;78;48.788;9.010;2023-09-19T14:54:36;14.10;;;2.43;;
179;SDS011;78;48.788;9.010;2023-09-19T14:57:06;14.37;;;2.20;;
179;SDS011;78;48.788;9.010;2023-09-19T14:59:34;14.10;;;2.20;;
179;SDS011;78;48.788;9.010;2023-09-19T15:02:04;15.77;;;3.00;;
179;SDS011;78;48.788;9.010;2023-09-19T15:04:31;16.50;;;2.40;;
179;SDS011;78;48.788;9.010;2023-09-19T15:06:57;17.13;;;2.40;;
179;SDS011;78;48.788;9.010;2023-09-19T15:09:24;14.87;;;2.20;;
179;SDS011;78;48.788;9.010;2023-09-19T15:11:52;15.60;;;2.20;;
179;SDS011;78;48.788;9.010;2023-09-19T15:14:19;14.97;;;2.57;;
179;SDS011;78;48.788;9.010;2023-09-19T15:16:46;23.33;;;2.73;;
179;SDS011;78;48.788;9.010;2023-09-19T15:19:13;15.80;;;2.37;;
179;SDS011;78;48.788;9.010;2023-09-19T15:21:40;14.90;;;2.47;;
179;SDS011;78;48.788;9.010;2023-09-19T15:24:06;14.10;;;2.20;;
179;SDS011;78;48.788;9.010;2023-09-19T15:26:36;16.33;;;2.50;;
179;SDS011;78;48.788;9.010;2023-09-19T15:29:06;15.40;;;2.40;;
179;SDS011;78;48.788;9.010;2023-09-19T15:31:32;14.70;;;2.40;;
179;SDS011;78;48.788;9.010;2023-09-19T15:33:58;14.70;;;2.43;;
179;SDS011;78;48.788;9.010;2023-09-19T15:36:26;15.83;;;2.10;;
179;SDS011;78;48.788;9.010;2023-09-19T15:39:01;16.27;;;2.40;;
179;SDS011;78;48.788;9.010;2023-09-19T15:43:55;13.60;;;2.00;;
179;SDS011;78;48.788;9.010;2023-09-19T15:46:22;17.33;;;2.20;;
179;SDS011;78;48.788;9.010;2023-09-19T15:48:48;14.40;;;2.20;;
179;SDS011;78;48.788;9.010;2023-09-19T15:51:15;15.03;;;2.27;;
179;SDS011;78;48.788;9.010;2023-09-19T15:53:48;15.67;;;2.50;;
179;SDS011;78;48.788;9.010;2023-09-19T15:56:15;16.27;;;2.37;;
179;SDS011;78;48.788;9.010;2023-09-19T15:58:45;15.00;;;2.20;;
179;SDS011;78;48.788;9.010;2023-09-19T16:01:11;15.33;;;2.20;;
179;SDS011;78;48.788;9.010;2023-09-19T16:03:38;15.63;;;2.20;;
179;SDS011;78;48.788;9.010;2023-09-19T16:06:11;14.73;;;2.20;;
179;SDS011;78;48.788;9.010;2023-09-19T16:08:45;15.23;;;2.10;;
179;SDS011;78;48.788;9.010;2023-09-19T16:11:15;16.00;;;2.37;;
179;SDS011;78;48.788;9.010;2023-09-19T16:13:41;17.83;;;2.30;;
179;SDS011;78;48.788;9.010;2023-09-19T16:16:09;14.90;;;2.50;;
179;SDS011;78;48.788;9.010;2023-09-19T16:18:37;15.23;;;2.40;;
179;SDS011;78;48.788;9.010;2023-09-19T16:21:05;14.30;;;2.30;;
179;SDS011;78;48.788;9.010;2023-09-19T16:23:33;15.47;;;2.30;;
179;SDS011;78;48.788;9.010;2023-09-19T16:26:03;17.80;;;2.40;;
179;SDS011;78;48.788;9.010;2023-09-19T16:28:30;14.90;;;2.30;;
179;SDS011;78;48.788;9.010;2023-09-19T16:31:00;15.30;;;2.50;;
179;SDS011;78;48.788;9.010;2023-09-19T16:33:31;14.00;;;2.20;;
179;SDS011;78;48.788;9.010;2023-09-19T16:35:57;15.60;;;2.10;;